香港 の空港の天気 - METARとTAF

香港国際空港 ( VHHH / HKG ) - 香港 赤リョウ角
飛行場実況気象(Metar)
観測時間02/28 06:00 HKT (02/27 22:00 UTC)
風向・風速東北東 6m/s
視程10km以上
天気現象
少しの雲 雲底高度 1220m
気温16℃
湿度55%
気圧1021hPa
METARVHHH 272200Z 07011KT 9999 FEW040 16/07 Q1021 NOSIG
過去の天気等 Google飛行場航空写真 Wunderground天気予報

過去48時間のMETAR

飛行場予報(TAF)
発表時間: 2/28 01:00 HKT (2/27 17:00 UTC)
予報対象時間: 28日2時 HKT ~ 1日8時 HKT
風向・風速東 5m/s
視程10km以上
少しの雲 雲底高度 910m
28日2時 HKT ~ 28日8時 HKT に一時的に
風向・風速東 8m/s 瞬間風速 13m/s
28日11時 HKT ~ 28日18時 HKT に一時的に
風向・風速西北西 5m/s
TAF VHHH 271700Z 2718/2824 08010KT 9999 FEW030 TX21/2806Z TN16/2723Z TN17/2823Z
TEMPO 2718/2724 09015G25KT
TEMPO 2803/2810 30010KT